Aeroporto :
LOGIN :

Iscrizione | Disclaimer

   EN    FR    IT 

 










Sommario :    VFR   VFR Marginale   IFR   IFR Intensivo   IFR Molto Intensivo
Visibilità : 
Base nubi : 
>= 8 km
>= 3000ft
5 / 8 km
1000 / 3000 ft
1500m / 5 km
500 / 1000 ft
800 / 1500m
200 / 500 ft
< 800m
< 200 ft
Simboli :   Temporali  Nebbia  Neve Forte  Precipitazioni Forti  Vento > 20 kt
SIGMETs :   Varie  Temporali  Ghiacco  Turbolenza  Onda orograficha  Ceneri Vulcaniche






- Altitudine del aeroporto : 53 ft
- Codice IATA : HAM


EDDH - Hamburg

ULTIMO METAR :
  • 221150Z 9999 FEW012 SCT017 07/04 Q1032 NOSIG

METARs OBSOLETI :
  • 221120Z 31011KT 9999 FEW011 BKN015 08/05 Q1033 NOSIG
  • 221050Z 29008KT 9999 FEW010 07/05 Q1033 NOSIG
  • 221020Z VRB02KT 280V340 9999 FEW010 07/05 Q1032 NOSIG
  • 220950Z 30007KT 9999 FEW006 07/05 Q1032 NOSIG
  • 220920Z 29007KT 9999 FEW005 SCT006 07/05 Q1032 NOSIG

TAF TAF EDDH
Valido dal 22 a 12 ore il 23 a 18 ore UTC


221100Z 2212/2318 30009KT 9999 SCT010
BECMG 2216/2218 28004KT
TEMPO 2219/2301 4000 BR BKN014
BECMG 2222/2301 BKN008
TEMPO 2301/2310 2000 BR BKN003
PROB30
TEMPO 2302/2309 0800 FG BKN001
BECMG 2307/2309 22006KT
BECMG 2310/2312 BKN012
TEMPO 2312/2318 BKN015



MetMap, La meteo Aeronautica in un colpo d'occhio ! - Copyright ORBIFLY Dicembre 2007 - Disclaimer

ORBIFLY MET'MAP TEAM :

Programmazione e sviluppo : Alexandra Zaïnal
Concezione : Baudouin d'Aumeries
Aiuto per la programmazione : Marc-Olivier Méhu
Supporto tecnico e logistico : Manuel Goepfert
Aiuto per la traduzione : Arnaldo La Scala

Contatto : metmap@orbifly.com




FONTI E CREDITI :

   NOAA